Dormazlice, Czech Republic
Current Conditions -  °F | °C
As of 10:18 PM on Monday 26 Jan 2015 (Local Time) from LKLN Reporting Station
Heavy Snow Heavy Snow  
Wind Chill: 24°   Ceiling: 1000
Heat Index: 32°   Visibility: 2.5mi
Dew Point: 32°   Wind: 10mph
Humidity: 100%   Direction: 220°SW
Pressure: 30.03"   Gusts: NA
Location:  49.44°N, 12.93°E
Report Text: LKLN 262018Z AUTO 22009KT 4000 +RASN BKN010 OVC014 00/M00 Q1017
Loading
Personal Weather Stations






























Interactive Weather Map New forecast layout! Learn more

10-Day Weather Forecast

Advertisements
Track Severe Weather on mobile